x

Sentry Shoal (46131) Wave Buoy

6:00 - Fri 29th Apr 2016 All times are PDT. -7 hours from GMT.

  • Sig Wave height 1.0ft
  • Peak Period 2s
  • Wind
    16mph, 18mph gusts
  • Sea Temp 52°f
  • Aire Temp 51°f
  • Sea Pressure 1018.6mb
  • Sentry Shoal
  • Sentry Shoal

More Historic Weather Station data

Upgrade to MSW Pro to gain access to the past 30 days of data for over 8000 Wavebouys and Weather Stations around the globe.

Join Pro

Comparision Forecast

View Surf forecast
   
vie 04/29 6:00 1ft 2s 16 18 mph 1018.6mb 52f 51f
5:00 0.7ft 2s 13 18 mph 1018.4mb 52f 51f
4:00 1ft 2s 13 16 mph 1018.3mb 53f 52f
3:00 1ft 2s 16 18 mph 1018.3mb 53f 52f
2:00 1ft 3s 13 16 mph 1018.1mb 53f 53f
1:00 1ft 2s 16 18 mph 1018mb 53f 53f
12:00 0.7ft 2s 16 20 mph 1017.8mb 54f 54f
jue 04/28 11:00 0.7ft 2s 13 16 mph 1017.5mb 54f 54f
10:00 0.7ft 2s 11 13 mph 1017.5mb 54f 54f
9:00 0.7ft 2s 11 13 mph 1017.3mb 54f 55f
8:00 0.7ft 2s 9 11 mph 1016.8mb 54f 55f
7:00 1ft 4s 13 18 mph 1016.7mb 54f 55f
6:00 1.3ft 4s 9
mph
1017.1mb 54f 56f
5:00 2ft 3s 9 13 mph 1017.1mb 55f 56f
4:00 1ft 2s 13 16 mph 1017.2mb 55f 56f
3:00  -  3s 9 11 mph 1017.6mb 56f 55f
2:00  -  3s 7 9 mph 1017.8mb 56f 54f
1:00 0.3ft 4s 2
mph
1018mb 56f 54f
12:00 0.3ft 4s 7
mph
1017.7mb 55f 52f
11:00 0.3ft 4s 4
mph
1018.1mb 55f 51f
10:00 0.3ft 2s 2
mph
1018.4mb 54f 51f
9:00 0.3ft 2s 4
mph
1018.6mb 53f 50f
8:00 0.7ft 2s 4 7 mph 1018.7mb 53f 50f
7:00 0.7ft 2s 9 11 mph 1018.8mb 52f 50f
6:00 0.7ft 2s 9 11 mph 1018.5mb 52f 50f
5:00 0.7ft 3s 11 13 mph 1018.2mb 52f 51f
4:00 0.7ft 2s 11 13 mph 1017.9mb 52f 51f
3:00 1ft 2s 13
mph
1017.6mb 52f 52f
2:00 0.7ft 2s 11 13 mph 1017.3mb 52f 52f
1:00 0.7ft 2s 11 13 mph 1017.1mb 53f 53f
12:00 0.3ft 2s 11 16 mph 1016.7mb 53f 54f
mié 04/27 11:00 0.3ft 3s 11 13 mph 1016.5mb 54f 54f
10:00  -  3s 7 9 mph 1016.6mb 54f 55f
9:00 0.3ft 3s 4
mph
1016.3mb 54f 57f
8:00 0.3ft 3s 4
mph
1016.1mb 55f 57f
7:00 0.3ft 3s 4 7 mph 1016.1mb 56f 57f
6:00 0.3ft 3s 4
mph
1016.3mb 56f 57f
5:00 0.3ft 3s 4
mph
1016.5mb 56f 56f
4:00 0.3ft 4s 4
mph
1016.9mb 56f 55f
3:00 0.3ft 3s 2
mph
1017.2mb 55f 55f
2:00 0.3ft 4s  -  2 mph 1017.4mb 54f 55f
1:00 0.3ft 5s  -  2 mph 1017.6mb 54f 53f
12:00 0.3ft 2s 4 7 mph 1017.5mb 53f 52f
11:00 0.3ft 2s 7 9 mph 1017.6mb 53f 51f
10:00 0.7ft 2s 9 11 mph 1017.3mb 53f 50f
9:00 0.7ft 2s 9 11 mph 1017.3mb 52f 49f
8:00 0.7ft 2s 9 11 mph 1017.3mb 52f 48f
7:00 0.3ft 2s 9 11 mph 1017mb 52f 48f
6:00 0.3ft 2s 9
mph
1016.8mb 52f 49f
5:00  -  5s 7 9 mph 1016.9mb 52f 49f
4:00 0.3ft 5s 4
mph
1017mb 52f 48f
3:00 0.3ft 5s 4
mph
1017mb 52f 49f
2:00 0.3ft 5s 4
mph
1017.1mb 52f 49f
1:00 0.3ft 5s 7
mph
1017mb 52f 50f
12:00 0.3ft 5s 7
mph
1016.8mb 52f 51f
mar 04/26 11:00 0.3ft 3s  -  mph 1016.8mb 52f 52f
10:00 0.3ft 2s  -  2 mph 1017.1mb 52f 52f
9:00 0.3ft 2s 4 7 mph 1017.1mb 52f 52f
8:00 0.7ft 3s 4 7 mph 1017.1mb 52f 53f
7:00 0.7ft 3s 4 11 mph 1017.5mb 53f 54f
6:00 0.7ft 3s 7 9 mph 1017.6mb 53f 53f
5:00 1ft 3s 7 9 mph 1017.7mb 53f 53f
4:00 1.3ft 3s 7 9 mph 1017.9mb 53f 53f
3:00 1.3ft 3s 11 13 mph 1018.2mb 53f 52f
2:00 1.6ft 3s 11 13 mph 1018.1mb 53f 52f
1:00 1.6ft 3s 13
mph
1018.4mb 53f 51f
12:00 1.3ft 3s 13 16 mph 1018.9mb 53f 51f
11:00 1ft 2s 13 16 mph 1019.3mb 53f 51f
10:00 0.7ft 3s 11 13 mph 1019.4mb 53f 50f
9:00 1ft 3s 9 11 mph 1019.5mb 53f 50f
8:00 1ft 3s 4 7 mph 1019.7mb 52f 48f
7:00 1.6ft 3s 7
mph
1019.5mb 52f 50f
6:00 1ft 2s 13 16 mph 1019.6mb 52f 50f
5:00 1ft 3s 2 4 mph 1020.1mb 52f 48f
4:00 1ft 3s 7 9 mph 1020.2mb 53f 50f
3:00 1.3ft 3s 7 13 mph 1020mb 53f 51f
2:00 0.7ft 3s 4 7 mph 1020.2mb 53f 50f
1:00 0.7ft 2s 7 9 mph 1020mb 53f 51f
12:00 0.3ft 3s 11
mph
1020.1mb 53f 53f
lun 04/25 11:00 0.3ft 2s 4
mph
1020.6mb 53f 53f
10:00  -  4s 7
mph
1020.5mb 54f 53f
9:00  -  4s 7 9 mph 1020.4mb 54f 54f
8:00 0.3ft 4s 4 7 mph 1020.2mb 54f 54f
7:00 0.3ft 4s 4
mph
1020.5mb 56f 54f
6:00 0.3ft 3s 4 7 mph 1020.8mb 56f 54f
5:00 0.3ft 3s 4 7 mph 1021.2mb 57f 53f
4:00 0.3ft 4s 4
mph
1021.8mb 58f 53f
3:00 0.3ft 4s 2 4 mph 1022.4mb 57f 53f